createdAt,value
2019-04-28T00:02:34.356Z,9.70
2019-04-28T00:06:35.344Z,10.00
2019-04-28T00:10:36.293Z,10.80
2019-04-28T00:14:37.301Z,10.40
2019-04-28T00:18:38.206Z,9.50
2019-04-28T00:22:57.725Z,10.40
2019-04-28T00:27:01.822Z,10.80
2019-04-28T00:31:03.285Z,10.60
2019-04-28T00:35:04.474Z,10.20
2019-04-28T00:39:06.176Z,9.90
2019-04-28T00:43:07.251Z,10.60
2019-04-28T00:47:08.240Z,10.90
2019-04-28T00:51:11.606Z,10.30
2019-04-28T00:55:12.331Z,10.00
2019-04-28T00:59:13.222Z,10.10
2019-04-28T01:03:14.211Z,10.00
2019-04-28T01:07:15.099Z,9.50
2019-04-28T01:11:15.991Z,9.30
2019-04-28T01:15:20.212Z,9.60
2019-04-28T01:19:26.143Z,9.70
2019-04-28T01:23:27.035Z,9.10
2019-04-28T01:27:30.364Z,9.20
2019-04-28T01:31:33.384Z,9.20
2019-04-28T01:35:34.371Z,8.40
2019-04-28T01:39:35.333Z,8.70
2019-04-28T01:43:36.252Z,8.00
2019-04-28T01:47:37.292Z,8.50
2019-04-28T01:51:38.277Z,7.90
2019-04-28T01:55:39.314Z,8.40
2019-04-28T01:59:42.066Z,8.60
2019-04-28T02:03:43.131Z,8.90
2019-04-28T02:07:44.225Z,9.50
2019-04-28T02:11:45.322Z,9.80
2019-04-28T02:15:46.275Z,9.20
2019-04-28T02:19:47.376Z,9.70
2019-04-28T02:23:49.299Z,10.30
2019-04-28T02:27:51.164Z,10.00
2019-04-28T02:31:52.130Z,9.70
2019-04-28T02:36:12.882Z,9.90
2019-04-28T02:40:13.871Z,10.70
2019-04-28T02:44:14.855Z,9.30
2019-04-28T02:48:17.835Z,10.50
2019-04-28T02:52:26.368Z,10.30
2019-04-28T02:56:27.256Z,10.90
2019-04-28T03:00:28.305Z,10.90
2019-04-28T03:04:30.757Z,11.30
2019-04-28T03:08:32.056Z,11.30
2019-04-28T03:12:33.206Z,11.50
2019-04-28T03:16:34.600Z,11.60
2019-04-28T03:20:35.583Z,11.70
2019-04-28T03:24:36.564Z,11.60
2019-04-28T03:28:45.382Z,11.60
2019-04-28T03:32:55.007Z,11.80
2019-04-28T03:36:51.848Z,11.40
2019-04-28T03:40:52.986Z,11.30
2019-04-28T03:44:55.273Z,11.40
2019-04-28T03:48:56.162Z,11.50
2019-04-28T03:52:57.022Z,11.50
2019-04-28T03:57:01.054Z,11.40
2019-04-28T04:01:03.261Z,10.50
2019-04-28T04:05:05.409Z,10.70
2019-04-28T04:09:06.509Z,11.20
2019-04-28T04:13:10.941Z,10.10
2019-04-28T04:17:16.718Z,10.30
2019-04-28T04:21:17.794Z,10.10
2019-04-28T04:25:20.344Z,11.10
2019-04-28T04:29:21.767Z,11.10
2019-04-28T04:33:22.834Z,11.20
2019-04-28T04:37:23.715Z,11.40
2019-04-28T04:41:24.680Z,11.00
2019-04-28T04:45:25.584Z,11.40
2019-04-28T04:49:26.585Z,11.00
2019-04-28T04:53:27.444Z,11.30
2019-04-28T04:57:32.381Z,11.20
2019-04-28T05:01:40.804Z,11.30
2019-04-28T05:05:44.916Z,11.30
2019-04-28T05:09:45.790Z,10.90
2019-04-28T05:13:46.665Z,10.30
2019-04-28T05:17:47.558Z,9.40
2019-04-28T05:21:49.854Z,11.10
2019-04-28T05:25:50.927Z,11.90
2019-04-28T05:29:51.798Z,12.00
2019-04-28T05:33:52.662Z,12.20
2019-04-28T05:37:53.552Z,12.50
2019-04-28T05:41:54.547Z,11.70
2019-04-28T05:45:55.425Z,11.70
2019-04-28T05:50:07.182Z,12.30
2019-04-28T05:54:12.789Z,13.10
2019-04-28T05:58:24.621Z,13.00
2019-04-28T06:02:33.235Z,13.50
2019-04-28T06:06:36.014Z,13.30
2019-04-28T06:10:37.034Z,12.60
2019-04-28T06:14:40.158Z,12.40
2019-04-28T06:18:42.145Z,12.30
2019-04-28T06:22:43.373Z,11.60
2019-04-28T06:26:44.391Z,11.60
2019-04-28T06:30:45.357Z,13.00
2019-04-28T06:34:46.234Z,11.70
2019-04-28T06:38:47.108Z,11.40
2019-04-28T06:42:47.995Z,12.20
2019-04-28T06:46:48.991Z,12.60
2019-04-28T06:50:49.845Z,13.40
2019-04-28T06:54:50.724Z,13.80
2019-04-28T06:58:59.000Z,14.70
2019-04-28T07:02:54.489Z,14.80
2019-04-28T07:06:55.376Z,14.70
2019-04-28T07:10:56.306Z,14.20
2019-04-28T07:14:57.415Z,13.90
2019-04-28T07:18:58.432Z,12.50
2019-04-28T07:22:59.372Z,12.70
2019-04-28T07:27:00.466Z,13.00
2019-04-28T07:31:01.520Z,11.80
2019-04-28T07:35:04.322Z,11.50
2019-04-28T07:39:27.170Z,11.60
2019-04-28T07:43:28.190Z,11.80
2019-04-28T07:47:29.060Z,10.70
2019-04-28T07:51:31.866Z,10.90
2019-04-28T07:55:32.866Z,11.50
2019-04-28T07:59:33.838Z,11.70
2019-04-28T08:03:34.939Z,11.40
2019-04-28T08:07:37.295Z,11.50
2019-04-28T08:11:38.237Z,13.00
2019-04-28T08:15:39.327Z,12.70
2019-04-28T08:19:40.241Z,13.00
2019-04-28T08:23:47.320Z,13.20
2019-04-28T08:27:43.951Z,11.90
2019-04-28T08:31:46.733Z,11.90
2019-04-28T08:35:47.637Z,13.30
2019-04-28T08:39:48.626Z,11.70
2019-04-28T08:43:49.567Z,13.60
2019-04-28T08:47:50.677Z,13.60
2019-04-28T08:51:51.687Z,13.40
2019-04-28T08:55:52.660Z,13.20
2019-04-28T08:59:53.643Z,13.30
2019-04-28T09:03:54.982Z,13.10
2019-04-28T09:07:56.152Z,13.20
2019-04-28T09:11:57.130Z,15.20
2019-04-28T09:15:58.059Z,13.40
2019-04-28T09:19:59.098Z,14.10
2019-04-28T09:24:00.072Z,14.90
2019-04-28T09:28:01.289Z,15.90
2019-04-28T09:32:02.500Z,16.50
2019-04-28T09:36:03.650Z,17.10
2019-04-28T09:40:08.706Z,16.90
2019-04-28T09:44:11.560Z,17.40
2019-04-28T09:48:12.625Z,17.60
2019-04-28T09:52:13.520Z,18.20
2019-04-28T09:56:14.596Z,20.00
2019-04-28T10:00:19.761Z,18.10
2019-04-28T10:04:19.701Z,18.00
2019-04-28T10:08:20.801Z,17.50
2019-04-28T10:12:27.308Z,17.60
2019-04-28T10:16:24.840Z,17.80
2019-04-28T10:20:25.994Z,17.60
2019-04-28T10:24:27.248Z,16.10
2019-04-28T10:28:28.356Z,15.80
2019-04-28T10:32:29.307Z,16.00
2019-04-28T10:36:30.949Z,15.00
2019-04-28T10:40:35.640Z,13.90
2019-04-28T10:44:38.555Z,14.40
2019-04-28T10:48:39.551Z,15.10
2019-04-28T10:52:40.451Z,13.30
2019-04-28T10:56:41.481Z,14.30
2019-04-28T11:00:42.720Z,15.20
2019-04-28T11:04:45.634Z,16.30
2019-04-28T11:08:51.484Z,17.00
2019-04-28T11:12:55.015Z,17.60
2019-04-28T11:16:55.996Z,16.00
2019-04-28T11:20:57.328Z,15.30
2019-04-28T11:24:58.538Z,15.20
2019-04-28T11:28:59.452Z,14.50
2019-04-28T11:33:11.297Z,15.10
2019-04-28T11:37:13.405Z,13.60
2019-04-28T11:41:14.431Z,12.50
2019-04-28T11:45:15.737Z,10.20
2019-04-28T11:49:16.627Z,10.00
2019-04-28T11:53:17.701Z,9.40
2019-04-28T11:57:18.849Z,10.30
2019-04-28T12:01:21.181Z,11.50
2019-04-28T12:05:34.053Z,12.30
2019-04-28T12:09:37.825Z,12.20
2019-04-28T12:13:40.723Z,12.20
2019-04-28T12:17:46.581Z,13.20
2019-04-28T12:21:47.727Z,13.80
2019-04-28T12:25:48.650Z,14.10
2019-04-28T12:29:49.776Z,14.70
2019-04-28T12:33:50.768Z,15.10
2019-04-28T12:37:51.913Z,15.20
2019-04-28T12:41:53.074Z,15.90
2019-04-28T12:45:54.034Z,16.40
2019-04-28T12:49:57.118Z,16.90
2019-04-28T12:53:59.920Z,17.10
2019-04-28T12:58:02.966Z,17.70
2019-04-28T13:02:06.159Z,17.80
2019-04-28T13:06:23.163Z,18.10
2019-04-28T13:10:28.450Z,16.40
2019-04-28T13:14:29.614Z,16.30
2019-04-28T13:18:30.874Z,16.30
2019-04-28T13:22:32.303Z,16.80
2019-04-28T13:26:33.745Z,17.20
2019-04-28T13:30:36.192Z,17.30
2019-04-28T13:34:39.474Z,17.40
2019-04-28T13:38:40.461Z,17.90
2019-04-28T13:42:41.563Z,17.40
2019-04-28T13:46:42.541Z,17.10
2019-04-28T13:50:43.612Z,17.60
2019-04-28T13:54:45.829Z,18.20
2019-04-28T13:58:48.230Z,19.50
2019-04-28T14:02:51.084Z,19.80
2019-04-28T14:06:53.622Z,18.90
2019-04-28T14:10:54.593Z,19.10
2019-04-28T14:14:55.729Z,19.30
2019-04-28T14:18:56.597Z,18.50
2019-04-28T14:22:57.550Z,19.50
2019-04-28T14:26:58.593Z,20.10
2019-04-28T14:30:59.543Z,17.80
2019-04-28T14:35:00.769Z,18.90
2019-04-28T14:39:04.841Z,20.00
2019-04-28T14:43:05.964Z,21.60
2019-04-28T14:47:07.010Z,22.10
2019-04-28T14:51:08.157Z,21.70
2019-04-28T14:55:26.862Z,21.60
2019-04-28T14:59:27.723Z,21.20
2019-04-28T15:03:30.585Z,19.90
2019-04-28T15:07:39.494Z,18.90
2019-04-28T15:11:45.139Z,20.40
2019-04-28T15:15:46.119Z,20.20
2019-04-28T15:19:47.030Z,19.90
2019-04-28T15:23:48.538Z,19.80
2019-04-28T15:27:50.090Z,17.60
2019-04-28T15:31:51.008Z,18.80
2019-04-28T15:35:52.023Z,20.00
2019-04-28T15:39:53.153Z,20.50
2019-04-28T15:43:54.253Z,20.20
2019-04-28T15:47:55.333Z,20.20
2019-04-28T15:51:56.388Z,20.40
2019-04-28T15:56:02.173Z,19.80
2019-04-28T16:00:06.962Z,19.40
2019-04-28T16:04:09.789Z,18.40
2019-04-28T16:08:11.182Z,18.00
2019-04-28T16:12:12.203Z,17.80
2019-04-28T16:16:13.126Z,17.70
2019-04-28T16:20:17.485Z,17.20
2019-04-28T16:24:18.585Z,17.40
2019-04-28T16:28:20.383Z,17.80
2019-04-28T16:32:21.488Z,17.80
2019-04-28T16:36:22.504Z,16.90
2019-04-28T16:40:26.628Z,17.40
2019-04-28T16:44:27.691Z,16.70
2019-04-28T16:48:28.643Z,17.50
2019-04-28T16:52:33.747Z,17.90
2019-04-28T16:56:39.312Z,17.80
2019-04-28T17:00:54.053Z,17.50
2019-04-28T17:04:55.067Z,17.30
2019-04-28T17:08:55.954Z,17.70
2019-04-28T17:12:56.932Z,17.80
2019-04-28T17:16:57.846Z,17.80
2019-04-28T17:20:58.865Z,17.80
2019-04-28T17:24:59.947Z,17.60
2019-04-28T17:29:00.822Z,17.90
2019-04-28T17:33:01.750Z,17.70
2019-04-28T17:37:03.867Z,18.00
2019-04-28T17:41:05.377Z,17.90
2019-04-28T17:45:07.076Z,17.90
2019-04-28T17:49:08.176Z,17.70
2019-04-28T17:53:09.287Z,17.60
2019-04-28T17:57:10.266Z,17.60
2019-04-28T18:01:15.162Z,17.60
2019-04-28T18:05:18.072Z,17.30
2019-04-28T18:09:19.180Z,16.90
2019-04-28T18:13:20.511Z,16.80
2019-04-28T18:17:23.556Z,16.90
2019-04-28T18:21:24.780Z,17.00
2019-04-28T18:25:26.145Z,17.10
2019-04-28T18:29:27.346Z,16.50
2019-04-28T18:33:46.926Z,16.00
2019-04-28T18:37:58.523Z,15.80
2019-04-28T18:42:01.433Z,16.20
2019-04-28T18:46:02.675Z,16.40
2019-04-28T18:50:05.098Z,16.30
2019-04-28T18:54:06.777Z,16.40
2019-04-28T18:58:08.380Z,16.30
2019-04-28T19:02:20.463Z,16.10
2019-04-28T19:06:21.973Z,15.80
2019-04-28T19:10:34.330Z,15.80
2019-04-28T19:14:40.161Z,15.80
2019-04-28T19:18:43.038Z,15.50
2019-04-28T19:22:45.597Z,15.50
2019-04-28T19:26:46.581Z,15.10
2019-04-28T19:30:48.047Z,15.00
2019-04-28T19:34:49.310Z,14.80
2019-04-28T19:39:02.590Z,14.30
2019-04-28T19:42:53.358Z,14.40
2019-04-28T19:46:58.399Z,14.40
2019-04-28T19:50:59.453Z,14.20
2019-04-28T19:55:05.216Z,14.10
2019-04-28T19:59:17.007Z,14.00
2019-04-28T20:03:18.106Z,13.70
2019-04-28T20:07:19.012Z,13.60
2019-04-28T20:11:20.067Z,13.40
2019-04-28T20:35:37.818Z,17.00
2019-04-28T20:39:38.946Z,13.90
2019-04-28T20:43:41.126Z,13.10
2019-04-28T20:47:42.313Z,11.40
2019-04-28T20:51:43.302Z,12.10
2019-04-28T20:55:44.315Z,12.20
2019-04-28T20:59:45.287Z,11.90
2019-04-28T21:03:48.215Z,11.90
2019-04-28T21:07:49.116Z,11.70
2019-04-28T21:11:50.121Z,11.40
2019-04-28T21:15:50.980Z,11.40
2019-04-28T21:19:59.674Z,11.40
2019-04-28T21:24:01.126Z,11.20
2019-04-28T21:28:02.525Z,11.10
2019-04-28T21:32:03.699Z,10.90
2019-04-28T21:36:04.776Z,11.00
2019-04-28T21:40:07.566Z,10.70
2019-04-28T21:44:27.486Z,9.60
2019-04-28T21:48:39.230Z,10.30
2019-04-28T21:52:40.149Z,10.70
2019-04-28T21:56:42.262Z,10.70
2019-04-28T22:00:46.949Z,10.50
2019-04-28T22:04:47.961Z,10.60
2019-04-28T22:08:48.872Z,10.60
2019-04-28T22:12:49.870Z,10.40
2019-04-28T22:16:50.993Z,10.40
2019-04-28T22:20:52.325Z,10.30
2019-04-28T22:25:00.136Z,10.20
2019-04-28T22:29:01.146Z,10.20
2019-04-28T22:33:02.204Z,10.10
2019-04-28T22:37:03.461Z,9.90
2019-04-28T22:41:04.836Z,9.60
2019-04-28T22:45:06.293Z,9.90
2019-04-28T22:49:07.574Z,9.80
2019-04-28T22:53:11.267Z,9.60
2019-04-28T22:57:30.644Z,8.90
2019-04-28T23:01:44.453Z,9.10
2019-04-28T23:05:47.273Z,9.30
2019-04-28T23:09:50.276Z,9.10
2019-04-28T23:13:51.325Z,9.20
2019-04-28T23:17:52.240Z,9.30
2019-04-28T23:21:55.134Z,9.10
2019-04-28T23:25:58.080Z,9.20
2019-04-28T23:29:58.975Z,9.00
2019-04-28T23:33:59.848Z,9.30
2019-04-28T23:38:01.070Z,9.40
2019-04-28T23:42:10.247Z,9.30
2019-04-28T23:46:11.383Z,8.70
2019-04-28T23:50:14.585Z,9.10
2019-04-28T23:54:15.841Z,8.90
2019-04-28T23:58:18.012Z,8.90
